الصفحة الرئيسية
METAR-TAF:

METAR-TAF

مطار :

Yap, مايكرونيزيا

دائرة عرض: 09-29N, خط طول: 138-05E, ارتفاع: 28 متر

مراقبة الطقس الحالي

تاريخ ووقت الإصدار 59 دقيقة قبل الساعة 03:50UTC
ريح 9 عقدة من الشرق/الجنوب الشرقي تتزايد حتى 19 عقدة
درجة الحرارة 29°درجة مئوية
الرطوبة 89%
ضغط 1005 hPa
الرؤية: 19.3 كم
غيوم متفرقة على ارتفاع 1600 قدم, مزنة ركامية.
غيوم مفككة على ارتفاع 13000 قدم
ملبد بالغيوم على ارتفاع 30000 قدم
زخات في الجوار

METAR: PTYA 290350Z 12009G19KT 12SM VCSH SCT016CB BKN130 OVC300 29/27 A2967 RMK VCSH S CB SE-SW-W SLP049 T02930267

زمن: 14:49 (04:49 UTC)

توقعات

تاريخ ووقت الإصدار 5ساعات و 29 دقيقة قبل الساعة 23:20UTC
التوقعات صالحة من29 الساعة 00 UTC إلى 29 الساعة 24 UTC
ريح 7 عقدة من الشرق
الرؤية: 10 كم
غيوم متفرقة على ارتفاع 1600 قدم
غيوم مفككة على ارتفاع 12000 قدم
زخات في الجوار

TAF: PTYA 282320Z 2900/2924 10007KT P6SM VCSH SCT016 BKN120

أرصاد الطقس والتوقعات من أكثر من 4000 مطار (تقارير الطقس للمطار METAR والتنبؤ بالطقس بالمطارTAF).

المحطات المتاحة هي النقط الصفراء والحمراء على الخريطة.

حرك المؤشر فوق النقطة لمعرفة اسم المحطة.

ثم انقر لمعرفة أرصاد وتوقعات الطقس.

لتغيير الخارطة: اضغط على الأزرار الخضراء مع رمز الصليب الأسود للتكبير. على الزر الأخضر مع شرطة للتصغير، أو على الأسهم الخضراء للخرائط المجاورة.


METAR-TAF: